createdAt,value
2022-08-11T00:02:31.863Z,18.80
2022-08-11T00:05:05.763Z,18.80
2022-08-11T00:07:34.339Z,18.70
2022-08-11T00:10:03.409Z,18.70
2022-08-11T00:12:31.862Z,18.70
2022-08-11T00:15:03.094Z,18.70
2022-08-11T00:17:33.740Z,18.70
2022-08-11T00:20:14.565Z,18.70
2022-08-11T00:22:47.536Z,18.60
2022-08-11T00:25:17.961Z,18.60
2022-08-11T00:27:48.017Z,18.50
2022-08-11T00:30:18.345Z,18.50
2022-08-11T00:32:54.806Z,18.50
2022-08-11T00:35:53.964Z,18.50
2022-08-11T00:38:17.370Z,18.50
2022-08-11T00:40:54.072Z,18.50
2022-08-11T00:43:32.789Z,18.50
2022-08-11T00:46:17.265Z,18.40
2022-08-11T00:48:58.378Z,18.40
2022-08-11T00:52:04.184Z,18.30
2022-08-11T00:55:12.684Z,18.30
2022-08-11T00:58:12.972Z,18.20
2022-08-11T01:00:59.741Z,18.20
2022-08-11T01:03:41.705Z,18.10
2022-08-11T01:06:46.710Z,18.10
2022-08-11T01:09:29.218Z,18.10
2022-08-11T01:12:36.889Z,18.10
2022-08-11T01:15:35.019Z,18.10
2022-08-11T01:18:56.857Z,18.00
2022-08-11T01:22:12.293Z,18.00
2022-08-11T01:25:23.088Z,17.90
2022-08-11T01:28:38.853Z,17.90
2022-08-11T01:31:48.962Z,17.90
2022-08-11T01:34:55.876Z,17.80
2022-08-11T01:37:54.209Z,17.80
2022-08-11T01:40:59.160Z,17.80
2022-08-11T01:44:25.544Z,17.70
2022-08-11T01:46:57.958Z,17.70
2022-08-11T01:50:08.887Z,17.70
2022-08-11T01:52:37.620Z,17.70
2022-08-11T01:55:16.396Z,17.60
2022-08-11T01:57:54.456Z,17.60
2022-08-11T02:00:28.968Z,17.60
2022-08-11T02:03:07.758Z,17.50
2022-08-11T02:05:51.402Z,17.50
2022-08-11T02:08:35.175Z,17.50
2022-08-11T02:11:35.539Z,17.50
2022-08-11T02:14:22.819Z,17.50
2022-08-11T02:17:03.495Z,17.40
2022-08-11T02:20:01.615Z,17.40
2022-08-11T02:22:54.116Z,17.40
2022-08-11T02:25:28.615Z,17.40
2022-08-11T02:28:03.630Z,17.40
2022-08-11T02:30:38.200Z,17.30
2022-08-11T02:33:24.939Z,17.30
2022-08-11T02:36:19.692Z,17.30
2022-08-11T02:38:54.185Z,17.20
2022-08-11T02:41:48.459Z,17.20
2022-08-11T02:44:32.234Z,17.20
2022-08-11T02:47:08.322Z,17.10
2022-08-11T02:50:06.241Z,17.10
2022-08-11T02:52:42.403Z,17.10
2022-08-11T02:55:45.968Z,17.00
2022-08-11T02:58:29.130Z,17.00
2022-08-11T03:01:11.474Z,17.00
2022-08-11T03:03:48.484Z,17.00
2022-08-11T03:06:32.399Z,17.00
2022-08-11T03:09:06.907Z,17.00
2022-08-11T03:12:10.584Z,17.00
2022-08-11T03:15:07.418Z,16.90
2022-08-11T03:17:42.143Z,16.90
2022-08-11T03:20:24.395Z,16.80
2022-08-11T03:23:19.662Z,16.80
2022-08-11T03:26:06.834Z,16.80
2022-08-11T03:28:45.601Z,16.80
2022-08-11T03:31:25.291Z,16.70
2022-08-11T03:34:07.550Z,16.70
2022-08-11T03:37:16.426Z,16.70
2022-08-11T03:39:56.712Z,16.70
2022-08-11T03:42:33.265Z,16.70
2022-08-11T03:45:50.355Z,16.70
2022-08-11T03:48:26.277Z,16.60
2022-08-11T03:51:03.929Z,16.70
2022-08-11T03:53:55.996Z,16.60
2022-08-11T03:57:03.380Z,16.60
2022-08-11T04:00:09.035Z,16.50
2022-08-11T04:03:16.315Z,16.50
2022-08-11T04:06:19.671Z,16.50
2022-08-11T04:09:29.341Z,16.50
2022-08-11T04:12:51.130Z,16.50
2022-08-11T04:16:00.874Z,16.50
2022-08-11T04:19:28.377Z,16.40
2022-08-11T04:22:25.183Z,16.40
2022-08-11T04:25:10.523Z,16.40
2022-08-11T04:28:28.715Z,16.40
2022-08-11T04:31:51.342Z,16.50
2022-08-11T04:34:45.888Z,16.40
2022-08-11T04:37:36.966Z,16.50
2022-08-11T04:40:28.179Z,16.50
2022-08-11T04:43:29.725Z,16.50
2022-08-11T04:46:35.463Z,16.50
2022-08-11T04:49:57.185Z,16.60
2022-08-11T04:53:07.977Z,16.60
2022-08-11T04:56:31.425Z,16.60
2022-08-11T05:00:01.388Z,16.70
2022-08-11T05:03:10.787Z,16.70
2022-08-11T05:06:05.992Z,16.70
2022-08-11T05:09:06.491Z,16.80
2022-08-11T05:11:51.708Z,16.80
2022-08-11T05:14:50.911Z,16.90
2022-08-11T05:17:52.969Z,16.90
2022-08-11T05:20:42.519Z,16.90
2022-08-11T05:23:30.205Z,16.90
2022-08-11T05:26:47.438Z,17.00
2022-08-11T05:29:45.712Z,17.10
2022-08-11T05:32:35.139Z,17.30
2022-08-11T05:35:07.515Z,17.40
2022-08-11T05:37:57.559Z,17.40
2022-08-11T05:40:43.592Z,17.50
2022-08-11T05:43:37.674Z,17.60
2022-08-11T05:46:43.432Z,17.80
2022-08-11T05:49:29.281Z,17.90
2022-08-11T05:52:21.781Z,18.10
2022-08-11T05:55:22.479Z,18.10
2022-08-11T05:57:56.106Z,18.20
2022-08-11T06:00:25.241Z,18.30
2022-08-11T06:02:55.919Z,18.30
2022-08-11T06:05:25.321Z,18.50
2022-08-11T06:07:57.264Z,18.50
2022-08-11T06:10:33.566Z,18.60
2022-08-11T06:13:03.165Z,18.70
2022-08-11T06:15:34.075Z,18.90
2022-08-11T06:18:04.178Z,19.00
2022-08-11T06:20:37.487Z,19.10
2022-08-11T06:23:09.874Z,19.30
2022-08-11T06:25:39.338Z,19.40
2022-08-11T06:28:09.363Z,19.50
2022-08-11T06:30:40.734Z,19.60
2022-08-11T06:33:11.027Z,19.70
2022-08-11T06:35:49.216Z,19.90
2022-08-11T06:38:29.222Z,20.00
2022-08-11T06:41:21.957Z,20.20
2022-08-11T06:43:56.415Z,20.30
2022-08-11T06:46:31.665Z,20.50
2022-08-11T06:49:03.694Z,20.60
2022-08-11T06:51:32.567Z,20.70
2022-08-11T06:54:05.653Z,20.90
2022-08-11T06:57:27.917Z,21.10
2022-08-11T06:59:49.463Z,21.30
2022-08-11T07:02:22.410Z,21.50
2022-08-11T07:04:55.021Z,21.60
2022-08-11T07:08:34.197Z,21.80
2022-08-11T07:11:45.049Z,22.00
2022-08-11T07:14:50.846Z,22.20
2022-08-11T07:17:23.041Z,22.40
2022-08-11T07:20:11.816Z,22.60
2022-08-11T07:23:05.315Z,22.70
2022-08-11T07:25:53.019Z,22.90
2022-08-11T07:28:54.655Z,23.00
2022-08-11T07:31:42.002Z,23.20
2022-08-11T07:34:23.748Z,23.30
2022-08-11T07:36:54.577Z,23.50
2022-08-11T07:39:25.515Z,23.60
2022-08-11T07:41:57.139Z,23.70
2022-08-11T07:44:34.289Z,23.80
2022-08-11T07:47:23.972Z,23.90
2022-08-11T07:50:12.510Z,24.10
2022-08-11T07:52:41.431Z,24.30
2022-08-11T07:55:14.719Z,24.40
2022-08-11T07:58:16.698Z,24.60
2022-08-11T08:01:10.579Z,24.70
2022-08-11T08:04:10.416Z,24.80
2022-08-11T08:06:57.564Z,25.00
2022-08-11T08:09:44.550Z,25.10
2022-08-11T08:12:31.550Z,25.30
2022-08-11T08:15:17.521Z,25.40
2022-08-11T08:18:20.360Z,25.50
2022-08-11T08:20:46.685Z,25.50
2022-08-11T08:23:15.738Z,25.70
2022-08-11T08:25:45.711Z,25.80
2022-08-11T08:28:17.510Z,25.90
2022-08-11T08:30:47.671Z,26.00
2022-08-11T08:33:20.531Z,26.00
2022-08-11T08:36:11.793Z,26.10
2022-08-11T08:38:41.802Z,26.20
2022-08-11T08:41:13.079Z,26.30
2022-08-11T08:43:49.056Z,26.40
2022-08-11T08:46:21.528Z,26.50
2022-08-11T08:48:53.203Z,26.50
2022-08-11T08:52:01.405Z,26.50
2022-08-11T08:54:30.271Z,26.50
2022-08-11T08:56:59.002Z,26.60
2022-08-11T08:59:47.908Z,26.70
2022-08-11T09:02:17.896Z,26.80
2022-08-11T09:04:47.796Z,26.90
2022-08-11T09:07:19.262Z,27.00
2022-08-11T09:09:57.953Z,27.10
2022-08-11T09:12:36.473Z,27.20
2022-08-11T09:15:10.287Z,27.20
2022-08-11T09:17:42.375Z,27.20
2022-08-11T09:20:13.894Z,27.40
2022-08-11T09:26:14.814Z,27.50
2022-08-11T09:28:44.738Z,27.70
2022-08-11T09:31:14.070Z,27.90
2022-08-11T09:33:43.679Z,27.90
2022-08-11T09:36:31.610Z,28.00
2022-08-11T09:39:19.231Z,28.10
2022-08-11T09:42:23.617Z,28.10
2022-08-11T09:44:49.877Z,28.20
2022-08-11T09:47:24.403Z,28.20
2022-08-11T09:49:56.220Z,28.30
2022-08-11T09:52:25.783Z,28.30
2022-08-11T09:54:56.546Z,28.50
2022-08-11T09:57:43.774Z,28.50
2022-08-11T10:00:15.154Z,28.50
2022-08-11T10:02:48.237Z,28.60
2022-08-11T10:05:38.449Z,28.60
2022-08-11T10:08:08.675Z,28.70
2022-08-11T10:10:40.455Z,28.80
2022-08-11T10:14:30.126Z,28.90
2022-08-11T10:16:15.940Z,28.90
2022-08-11T10:18:52.588Z,28.90
2022-08-11T10:21:28.483Z,29.00
2022-08-11T10:24:16.702Z,29.10
2022-08-11T10:27:00.066Z,29.10
2022-08-11T10:29:49.534Z,29.20
2022-08-11T10:32:49.391Z,29.10
2022-08-11T10:35:29.165Z,29.10
2022-08-11T10:38:08.306Z,29.10
2022-08-11T10:40:39.944Z,29.20
2022-08-11T10:43:14.313Z,29.30
2022-08-11T10:46:05.686Z,29.20
2022-08-11T10:48:38.941Z,29.30
2022-08-11T10:51:24.557Z,29.40
2022-08-11T10:54:24.526Z,29.50
2022-08-11T10:57:12.499Z,29.60
2022-08-11T10:59:43.421Z,29.70
2022-08-11T11:02:15.754Z,29.60
2022-08-11T11:04:59.222Z,29.60
2022-08-11T11:07:44.226Z,29.70
2022-08-11T11:10:13.289Z,29.60
2022-08-11T11:13:03.210Z,29.70
2022-08-11T11:15:53.543Z,29.70
2022-08-11T11:18:24.993Z,29.60
2022-08-11T11:20:57.679Z,29.60
2022-08-11T11:23:32.878Z,29.60
2022-08-11T11:26:28.780Z,29.60
2022-08-11T11:29:35.627Z,29.70
2022-08-11T11:32:28.614Z,29.70
2022-08-11T11:35:12.232Z,29.60
2022-08-11T11:37:41.829Z,29.50
2022-08-11T11:40:31.615Z,29.50
2022-08-11T11:43:01.504Z,29.60
2022-08-11T11:45:29.941Z,29.60
2022-08-11T11:48:01.334Z,29.70
2022-08-11T11:50:32.841Z,29.80
2022-08-11T11:53:03.040Z,29.80
2022-08-11T11:55:31.932Z,30.00
2022-08-11T11:58:20.034Z,29.90
2022-08-11T12:01:08.624Z,30.00
2022-08-11T12:03:40.165Z,30.00
2022-08-11T12:06:12.117Z,30.10
2022-08-11T12:08:40.232Z,30.20
2022-08-11T12:11:29.767Z,30.20
2022-08-11T12:13:59.860Z,30.20
2022-08-11T12:16:34.633Z,30.30
2022-08-11T12:19:09.969Z,30.20
2022-08-11T12:22:00.875Z,30.20
2022-08-11T12:24:48.075Z,30.20
2022-08-11T12:27:24.099Z,30.30
2022-08-11T12:29:57.271Z,30.30
2022-08-11T12:32:30.146Z,30.40
2022-08-11T12:35:00.246Z,30.40
2022-08-11T12:37:33.135Z,30.30
2022-08-11T12:40:43.688Z,30.30
2022-08-11T12:43:37.259Z,30.30
2022-08-11T12:46:10.028Z,30.30
2022-08-11T12:49:02.894Z,30.30
2022-08-11T12:52:01.617Z,30.30
2022-08-11T12:55:00.416Z,30.40
2022-08-11T12:57:50.556Z,30.40
2022-08-11T13:00:37.935Z,30.40
2022-08-11T13:03:26.440Z,30.30
2022-08-11T13:05:57.378Z,30.30
2022-08-11T13:08:29.538Z,30.20
2022-08-11T13:11:17.440Z,30.30
2022-08-11T13:13:54.168Z,30.30
2022-08-11T13:16:26.709Z,30.40
2022-08-11T13:18:55.200Z,30.40
2022-08-11T13:21:24.091Z,30.40
2022-08-11T13:24:00.930Z,30.50
2022-08-11T13:26:47.160Z,30.40
2022-08-11T13:29:19.880Z,30.40
2022-08-11T13:31:48.671Z,30.40
2022-08-11T13:34:17.632Z,30.40
2022-08-11T13:36:46.410Z,30.40
2022-08-11T13:39:16.249Z,30.30
2022-08-11T13:41:47.757Z,30.20
2022-08-11T13:44:24.717Z,30.20
2022-08-11T13:46:55.611Z,30.20
2022-08-11T13:49:24.334Z,30.20
2022-08-11T13:51:55.244Z,30.20
2022-08-11T13:54:27.211Z,30.20
2022-08-11T13:56:58.059Z,30.30
2022-08-11T13:59:29.534Z,30.20
2022-08-11T14:02:22.511Z,30.30
2022-08-11T14:04:55.739Z,30.30
2022-08-11T14:07:26.854Z,30.20
2022-08-11T14:09:59.319Z,30.20
2022-08-11T14:12:48.186Z,30.20
2022-08-11T14:15:20.787Z,30.20
2022-08-11T14:17:53.119Z,30.20
2022-08-11T14:20:39.645Z,30.10
2022-08-11T14:23:11.460Z,30.20
2022-08-11T14:26:03.750Z,30.10
2022-08-11T14:28:40.294Z,30.10
2022-08-11T14:31:14.382Z,30.00
2022-08-11T14:33:59.321Z,30.00
2022-08-11T14:36:32.917Z,30.00
2022-08-11T14:39:04.871Z,30.00
2022-08-11T14:42:11.563Z,29.90
2022-08-11T14:45:00.394Z,29.80
2022-08-11T14:47:30.081Z,29.80
2022-08-11T14:50:11.341Z,29.70
2022-08-11T14:52:44.622Z,29.70
2022-08-11T14:55:31.690Z,29.70
2022-08-11T14:58:02.964Z,29.70
2022-08-11T15:00:32.181Z,29.70
2022-08-11T15:03:13.469Z,29.70
2022-08-11T15:05:56.304Z,29.70
2022-08-11T15:08:42.260Z,29.60
2022-08-11T15:11:26.622Z,29.50
2022-08-11T15:13:57.244Z,29.50
2022-08-11T15:16:44.603Z,29.50
2022-08-11T15:19:13.555Z,29.50
2022-08-11T15:21:59.438Z,29.50
2022-08-11T15:24:28.035Z,29.50
2022-08-11T15:27:19.274Z,29.50
2022-08-11T15:30:07.547Z,29.50
2022-08-11T15:32:55.155Z,29.50
2022-08-11T15:35:41.459Z,29.50
2022-08-11T15:38:13.899Z,29.50
2022-08-11T15:41:01.283Z,29.50
2022-08-11T15:43:50.087Z,29.30
2022-08-11T15:46:24.137Z,29.30
2022-08-11T15:48:59.060Z,29.20
2022-08-11T15:51:34.316Z,29.20
2022-08-11T15:54:09.367Z,29.20
2022-08-11T15:56:40.814Z,29.20
2022-08-11T15:59:43.252Z,29.10
2022-08-11T16:02:33.599Z,29.10
2022-08-11T16:05:04.367Z,29.10
2022-08-11T16:07:40.407Z,29.00
2022-08-11T16:10:17.978Z,29.00
2022-08-11T16:13:21.354Z,28.90
2022-08-11T16:16:10.146Z,28.80
2022-08-11T16:18:43.618Z,28.90
2022-08-11T16:21:33.556Z,28.80
2022-08-11T16:24:05.822Z,28.70
2022-08-11T16:27:08.580Z,28.60
2022-08-11T16:29:26.088Z,28.60
2022-08-11T16:32:14.374Z,28.60
2022-08-11T16:35:03.883Z,28.50
2022-08-11T16:37:52.968Z,28.50
2022-08-11T16:40:22.700Z,28.40
2022-08-11T16:43:11.829Z,28.40
2022-08-11T16:45:58.893Z,28.40
2022-08-11T16:48:35.710Z,28.30
2022-08-11T16:51:08.289Z,28.20
2022-08-11T16:53:54.748Z,28.10
2022-08-11T16:56:30.122Z,28.00
2022-08-11T16:59:16.265Z,28.00
2022-08-11T17:01:50.192Z,27.90
2022-08-11T17:04:43.772Z,27.80
2022-08-11T17:07:41.581Z,27.80
2022-08-11T17:10:53.688Z,27.70
2022-08-11T17:13:30.566Z,27.60
2022-08-11T17:16:09.221Z,27.40
2022-08-11T17:18:49.890Z,27.40
2022-08-11T17:21:21.244Z,27.20
2022-08-11T17:23:55.079Z,27.10
2022-08-11T17:26:51.512Z,27.00
2022-08-11T17:29:24.463Z,26.80
2022-08-11T17:32:11.259Z,26.70
2022-08-11T17:34:59.074Z,26.60
2022-08-11T17:37:29.561Z,26.50
2022-08-11T17:40:00.983Z,26.30
2022-08-11T17:42:49.295Z,26.20
2022-08-11T17:45:35.758Z,26.10
2022-08-11T17:48:23.106Z,25.90
2022-08-11T17:50:53.249Z,25.80
2022-08-11T17:53:39.846Z,25.70
2022-08-11T17:56:50.790Z,25.60
2022-08-11T17:59:37.131Z,25.50
2022-08-11T18:02:21.686Z,25.40
2022-08-11T18:05:02.957Z,25.30
2022-08-11T18:07:48.560Z,25.20
2022-08-11T18:10:39.460Z,25.10
2022-08-11T18:13:28.046Z,24.90
2022-08-11T18:16:13.914Z,24.80
2022-08-11T18:18:59.406Z,24.70
2022-08-11T18:22:00.675Z,24.60
2022-08-11T18:24:58.370Z,24.50
2022-08-11T18:27:46.739Z,24.40
2022-08-11T18:30:33.983Z,24.30
2022-08-11T18:33:56.901Z,24.30
2022-08-11T18:36:30.202Z,24.20
2022-08-11T18:39:16.994Z,24.10
2022-08-11T18:42:06.282Z,24.00
2022-08-11T18:44:55.706Z,23.90
2022-08-11T18:47:44.452Z,23.80
2022-08-11T18:50:39.662Z,23.70
2022-08-11T18:53:27.690Z,23.60
2022-08-11T18:56:14.166Z,23.60
2022-08-11T18:59:05.916Z,23.50
